createdAt,value
2022-10-28T00:00:04.900Z,184
2022-10-28T00:00:33.937Z,207
2022-10-28T00:01:08.646Z,243
2022-10-28T00:01:34.018Z,233
2022-10-28T00:01:57.488Z,292
2022-10-28T00:02:28.751Z,286
2022-10-28T00:03:01.198Z,244
2022-10-28T00:03:32.500Z,168
2022-10-28T00:04:05.341Z,109
2022-10-28T00:04:34.562Z,45
2022-10-28T00:04:52.735Z,340
2022-10-28T00:05:25.344Z,234
2022-10-28T00:05:41.667Z,264
2022-10-28T00:06:12.576Z,338
2022-10-28T00:06:34.044Z,325
2022-10-28T00:07:00.642Z,192
2022-10-28T00:07:33.169Z,277
2022-10-28T00:08:04.461Z,214
2022-10-28T00:08:34.810Z,271
2022-10-28T00:09:12.095Z,262
2022-10-28T00:09:33.911Z,238
2022-10-28T00:09:57.224Z,247
2022-10-28T00:10:28.593Z,233
2022-10-28T00:11:00.594Z,191
2022-10-28T00:11:32.693Z,263
2022-10-28T00:12:04.473Z,144
2022-10-28T00:12:34.061Z,165
2022-10-28T00:12:52.605Z,288
2022-10-28T00:13:25.137Z,260
2022-10-28T00:13:57.361Z,147
2022-10-28T00:14:28.493Z,110
2022-10-28T00:15:00.763Z,259
2022-10-28T00:15:32.732Z,259
2022-10-28T00:16:04.504Z,232
2022-10-28T00:16:34.070Z,212
2022-10-28T00:16:52.533Z,269
2022-10-28T00:17:34.708Z,269
2022-10-28T00:17:56.587Z,303
2022-10-28T00:18:28.520Z,196
2022-10-28T00:19:01.327Z,230
2022-10-28T00:19:32.656Z,239
2022-10-28T00:20:04.587Z,222
2022-10-28T00:20:34.091Z,241
2022-10-28T00:20:52.661Z,223
2022-10-28T00:21:25.167Z,221
2022-10-28T00:21:41.862Z,221
2022-10-28T00:22:12.484Z,223
2022-10-28T00:22:33.922Z,216
2022-10-28T00:23:00.580Z,263
2022-10-28T00:23:33.172Z,216
2022-10-28T00:24:04.437Z,217
2022-10-28T00:24:34.825Z,216
2022-10-28T00:24:52.612Z,204
2022-10-28T00:25:24.698Z,123
2022-10-28T00:25:41.708Z,122
2022-10-28T00:26:12.616Z,121
2022-10-28T00:26:33.927Z,113
2022-10-28T00:27:01.257Z,261
2022-10-28T00:27:32.615Z,184
2022-10-28T00:28:05.035Z,179
2022-10-28T00:28:33.975Z,180
2022-10-28T00:28:52.449Z,180
2022-10-28T00:29:24.582Z,222
2022-10-28T00:29:41.674Z,222
2022-10-28T00:30:13.275Z,222
2022-10-28T00:30:34.049Z,222
2022-10-28T00:31:00.516Z,176
2022-10-28T00:31:32.443Z,176
2022-10-28T00:32:04.640Z,227
2022-10-28T00:32:33.938Z,277
2022-10-28T00:32:52.708Z,266
2022-10-28T00:33:25.364Z,199
2022-10-28T00:33:41.747Z,263
2022-10-28T00:34:12.630Z,277
2022-10-28T00:34:34.133Z,255
2022-10-28T00:35:01.280Z,196
2022-10-28T00:35:32.449Z,197
2022-10-28T00:36:04.544Z,296
2022-10-28T00:36:33.919Z,238
2022-10-28T00:36:52.650Z,212
2022-10-28T00:37:25.216Z,261
2022-10-28T00:37:41.647Z,257
2022-10-28T00:38:12.553Z,325
2022-10-28T00:38:34.084Z,269
2022-10-28T00:39:00.432Z,301
2022-10-28T00:39:33.201Z,252
2022-10-28T00:40:04.581Z,234
2022-10-28T00:40:33.990Z,233
2022-10-28T00:40:53.275Z,238
2022-10-28T00:41:24.501Z,101
2022-10-28T00:41:41.609Z,87
2022-10-28T00:42:13.250Z,117
2022-10-28T00:42:34.025Z,159
2022-10-28T00:43:00.602Z,151
2022-10-28T00:43:33.123Z,185
2022-10-28T00:44:04.497Z,268
2022-10-28T00:44:33.996Z,259
2022-10-28T00:44:53.135Z,186
2022-10-28T00:45:24.753Z,164
2022-10-28T00:45:41.554Z,163
2022-10-28T00:46:13.342Z,192
2022-10-28T00:46:33.928Z,120
2022-10-28T00:47:16.620Z,156
2022-10-28T00:47:48.489Z,146
2022-10-28T00:48:20.397Z,160
2022-10-28T00:48:38.755Z,159
2022-10-28T00:49:08.596Z,139
2022-10-28T00:49:34.535Z,237
2022-10-28T00:49:56.393Z,208
2022-10-28T00:50:28.665Z,156
2022-10-28T00:51:01.321Z,240
2022-10-28T00:51:32.913Z,159
2022-10-28T00:52:04.403Z,159
2022-10-28T00:52:34.047Z,159
2022-10-28T00:52:52.494Z,155
2022-10-28T00:53:25.230Z,155
2022-10-28T00:53:57.341Z,155
2022-10-28T00:54:28.480Z,164
2022-10-28T00:55:00.666Z,161
2022-10-28T00:55:32.602Z,168
2022-10-28T00:56:04.462Z,164
2022-10-28T00:56:34.399Z,273
2022-10-28T00:56:52.461Z,4
2022-10-28T00:57:25.306Z,4
2022-10-28T00:57:57.530Z,41
2022-10-28T00:58:28.441Z,41
2022-10-28T00:59:00.483Z,216
2022-10-28T00:59:32.551Z,294
2022-10-28T01:00:04.811Z,201
2022-10-28T01:00:33.923Z,199
2022-10-28T01:00:52.531Z,200
2022-10-28T01:01:25.517Z,208
2022-10-28T01:01:57.491Z,227
2022-10-28T01:02:29.124Z,274
2022-10-28T01:03:00.454Z,253
2022-10-28T01:03:32.453Z,295
2022-10-28T01:04:04.619Z,284
2022-10-28T01:04:33.960Z,288
2022-10-28T01:04:53.095Z,302
2022-10-28T01:05:24.564Z,302
2022-10-28T01:05:41.643Z,302
2022-10-28T01:06:13.125Z,198
2022-10-28T01:06:34.335Z,198
2022-10-28T01:07:00.395Z,198
2022-10-28T01:07:33.390Z,198
2022-10-28T01:08:04.530Z,199
2022-10-28T01:08:34.574Z,199
2022-10-28T01:08:56.151Z,201
2022-10-28T01:09:41.572Z,200
2022-10-28T01:10:12.602Z,201
2022-10-28T01:10:34.035Z,200
2022-10-28T01:11:01.106Z,201
2022-10-28T01:11:32.463Z,200
2022-10-28T01:12:04.438Z,201
2022-10-28T01:12:33.945Z,200
2022-10-28T01:12:52.825Z,200
2022-10-28T01:13:25.112Z,200
2022-10-28T01:13:57.326Z,200
2022-10-28T01:14:28.463Z,200
2022-10-28T01:15:00.831Z,201
2022-10-28T01:15:32.630Z,200
2022-10-28T01:16:04.394Z,200
2022-10-28T01:16:34.048Z,200
2022-10-28T01:16:52.611Z,197
2022-10-28T01:17:25.149Z,197
2022-10-28T01:17:57.294Z,201
2022-10-28T01:18:28.413Z,201
2022-10-28T01:19:00.581Z,198
2022-10-28T01:19:33.602Z,198
2022-10-28T01:20:04.573Z,198
2022-10-28T01:20:37.670Z,198
2022-10-28T01:20:53.522Z,198
2022-10-28T01:21:34.041Z,198
2022-10-28T01:21:56.591Z,261
2022-10-28T01:22:28.508Z,154
2022-10-28T01:23:00.411Z,154
2022-10-28T01:23:33.126Z,249
2022-10-28T01:24:04.409Z,224
2022-10-28T01:24:34.049Z,205
2022-10-28T01:24:53.028Z,204
2022-10-28T01:25:24.816Z,203
2022-10-28T01:25:41.988Z,202
2022-10-28T01:26:13.280Z,202
2022-10-28T01:26:33.956Z,202
2022-10-28T01:27:00.540Z,262
2022-10-28T01:27:33.031Z,240
2022-10-28T01:28:04.455Z,211
2022-10-28T01:28:34.094Z,215
2022-10-28T01:28:53.201Z,226
2022-10-28T01:29:24.578Z,232
2022-10-28T01:29:41.587Z,249
2022-10-28T01:30:13.419Z,193
2022-10-28T01:30:33.922Z,193
2022-10-28T01:31:00.572Z,192
2022-10-28T01:31:33.058Z,301
2022-10-28T01:32:04.382Z,301
2022-10-28T01:32:34.950Z,295
2022-10-28T01:32:53.087Z,269
2022-10-28T01:33:24.659Z,329
2022-10-28T01:33:42.205Z,329
2022-10-28T01:34:12.365Z,329
2022-10-28T01:34:33.898Z,336
2022-10-28T01:35:00.620Z,33
2022-10-28T01:35:32.581Z,47
2022-10-28T01:36:05.274Z,293
2022-10-28T01:36:34.042Z,290
2022-10-28T01:36:52.454Z,286
2022-10-28T01:37:24.579Z,286
2022-10-28T01:37:41.655Z,285
2022-10-28T01:38:13.220Z,283
2022-10-28T01:38:33.873Z,289
2022-10-28T01:39:00.427Z,236
2022-10-28T01:39:33.267Z,282
2022-10-28T01:40:04.699Z,71
2022-10-28T01:40:34.046Z,75
2022-10-28T01:40:53.266Z,75
2022-10-28T01:41:24.481Z,75
2022-10-28T01:41:41.532Z,75
2022-10-28T01:42:13.145Z,75
2022-10-28T01:42:34.092Z,75
2022-10-28T01:43:00.374Z,75
2022-10-28T01:43:32.386Z,79
2022-10-28T01:44:04.552Z,134
2022-10-28T01:44:33.874Z,134
2022-10-28T01:44:52.539Z,136
2022-10-28T01:45:25.696Z,136
2022-10-28T01:45:57.351Z,136
2022-10-28T01:46:29.143Z,136
2022-10-28T01:47:00.534Z,136
2022-10-28T01:47:32.991Z,136
2022-10-28T01:48:04.444Z,136
2022-10-28T01:48:34.090Z,136
2022-10-28T01:48:53.309Z,136
2022-10-28T01:49:24.542Z,136
2022-10-28T01:49:41.505Z,136
2022-10-28T01:50:12.917Z,174
2022-10-28T01:50:33.889Z,174
2022-10-28T01:51:01.760Z,174
2022-10-28T01:51:32.490Z,174
2022-10-28T01:52:04.418Z,174
2022-10-28T01:52:34.107Z,174
2022-10-28T01:52:52.688Z,174
2022-10-28T01:53:25.039Z,174
2022-10-28T01:53:41.966Z,174
2022-10-28T01:54:12.461Z,174
2022-10-28T01:54:33.877Z,174
2022-10-28T01:55:00.650Z,174
2022-10-28T01:55:33.844Z,174
2022-10-28T01:56:04.526Z,174
2022-10-28T01:56:34.038Z,174
2022-10-28T01:56:53.232Z,174
2022-10-28T01:57:24.661Z,174
2022-10-28T01:57:41.675Z,174
2022-10-28T01:58:13.154Z,174
2022-10-28T01:58:33.938Z,174
2022-10-28T01:59:00.442Z,174
2022-10-28T01:59:32.755Z,174
2022-10-28T02:00:04.810Z,174
2022-10-28T02:00:34.123Z,174
2022-10-28T02:00:52.523Z,174
2022-10-28T02:01:25.400Z,174
2022-10-28T02:01:42.056Z,174
2022-10-28T02:02:12.520Z,174
2022-10-28T02:02:34.483Z,174
2022-10-28T02:03:01.297Z,174
2022-10-28T02:03:32.497Z,174
2022-10-28T02:04:04.803Z,174
2022-10-28T02:04:33.881Z,174
2022-10-28T02:04:52.386Z,174
2022-10-28T02:05:25.387Z,174
2022-10-28T02:05:57.453Z,174
2022-10-28T02:06:28.410Z,174
2022-10-28T02:07:00.411Z,174
2022-10-28T02:07:32.471Z,174
2022-10-28T02:08:04.659Z,174
2022-10-28T02:08:33.884Z,174
2022-10-28T02:08:52.357Z,174
2022-10-28T02:09:25.287Z,174
2022-10-28T02:09:57.438Z,174
2022-10-28T02:10:28.716Z,174
2022-10-28T02:11:00.348Z,174
2022-10-28T02:11:32.345Z,174
2022-10-28T02:12:04.625Z,174
2022-10-28T02:12:33.922Z,174
2022-10-28T02:12:52.530Z,174
2022-10-28T02:13:25.294Z,174
2022-10-28T02:13:57.524Z,174
2022-10-28T02:14:28.536Z,174
2022-10-28T02:15:00.717Z,174
2022-10-28T02:15:33.253Z,174
2022-10-28T02:16:04.468Z,174
2022-10-28T02:16:34.566Z,174
2022-10-28T02:16:52.527Z,174
2022-10-28T02:17:24.375Z,174
2022-10-28T02:17:42.365Z,174
2022-10-28T02:18:12.468Z,174
2022-10-28T02:18:34.319Z,174
2022-10-28T02:19:00.379Z,174
2022-10-28T02:19:32.407Z,174
2022-10-28T02:20:05.367Z,174
2022-10-28T02:20:33.922Z,174
2022-10-28T02:20:52.661Z,174
2022-10-28T02:21:24.357Z,174
2022-10-28T02:21:41.474Z,174
2022-10-28T02:22:13.125Z,174
2022-10-28T02:22:33.931Z,174
2022-10-28T02:23:00.575Z,174
2022-10-28T02:23:33.159Z,174
2022-10-28T02:24:04.493Z,174
2022-10-28T02:24:34.775Z,174
2022-10-28T02:24:52.538Z,174
2022-10-28T02:25:24.695Z,174
2022-10-28T02:25:41.475Z,174
2022-10-28T02:26:13.268Z,174
2022-10-28T02:26:33.883Z,174
2022-10-28T02:27:00.545Z,174
2022-10-28T02:27:33.134Z,174
2022-10-28T02:28:04.519Z,174
2022-10-28T02:28:34.109Z,174
2022-10-28T02:28:53.220Z,174
2022-10-28T02:29:24.603Z,174
2022-10-28T02:29:41.652Z,174
2022-10-28T02:30:12.465Z,174
2022-10-28T02:30:34.733Z,174
2022-10-28T02:31:01.184Z,174
2022-10-28T02:31:32.492Z,174
2022-10-28T02:32:04.915Z,174
2022-10-28T02:32:34.069Z,174
2022-10-28T02:32:52.631Z,174
2022-10-28T02:33:24.454Z,174
2022-10-28T02:33:41.670Z,174
2022-10-28T02:34:13.501Z,174
2022-10-28T02:34:34.068Z,174
2022-10-28T02:35:00.778Z,174
2022-10-28T02:35:33.277Z,174
2022-10-28T02:36:04.573Z,174
2022-10-28T02:36:34.868Z,174
2022-10-28T02:36:52.412Z,174
2022-10-28T02:37:24.342Z,174
2022-10-28T02:37:41.552Z,173
2022-10-28T02:38:13.046Z,75
2022-10-28T02:38:34.130Z,166
2022-10-28T02:39:00.389Z,165
2022-10-28T02:39:33.944Z,165
2022-10-28T02:40:04.677Z,165
2022-10-28T02:40:34.210Z,165
2022-10-28T02:41:24.354Z,165
2022-10-28T02:41:41.482Z,166
2022-10-28T02:42:12.520Z,165
2022-10-28T02:42:34.133Z,165
2022-10-28T02:43:01.073Z,165
2022-10-28T02:43:32.389Z,165
2022-10-28T02:44:05.265Z,165
2022-10-28T02:44:33.922Z,165
2022-10-28T02:44:52.467Z,166
2022-10-28T02:45:25.943Z,165
2022-10-28T02:45:56.345Z,165
2022-10-28T02:46:29.398Z,165
2022-10-28T02:47:00.521Z,165
2022-10-28T02:47:32.371Z,166
2022-10-28T02:48:04.387Z,165
2022-10-28T02:48:34.403Z,165
2022-10-28T02:48:53.421Z,165
2022-10-28T02:49:24.381Z,165
2022-10-28T02:49:41.470Z,165
2022-10-28T02:50:13.489Z,165
2022-10-28T02:50:34.565Z,165
2022-10-28T02:51:00.460Z,165
2022-10-28T02:51:32.306Z,165
2022-10-28T02:52:04.400Z,165
2022-10-28T02:52:34.112Z,165
2022-10-28T02:52:52.840Z,165
2022-10-28T02:53:42.110Z,165
2022-10-28T02:54:12.405Z,165
2022-10-28T02:54:34.751Z,165
2022-10-28T02:55:00.655Z,165
2022-10-28T02:55:32.465Z,165
2022-10-28T02:56:04.498Z,165
2022-10-28T02:56:34.051Z,165
2022-10-28T02:56:52.876Z,165
2022-10-28T02:57:24.462Z,165
2022-10-28T02:57:41.633Z,165
2022-10-28T02:58:12.441Z,165
2022-10-28T02:58:33.879Z,165
2022-10-28T02:59:00.935Z,165
2022-10-28T02:59:32.496Z,165
2022-10-28T03:00:05.239Z,165
2022-10-28T03:00:34.244Z,165
2022-10-28T03:00:52.566Z,165
2022-10-28T03:01:24.653Z,165
2022-10-28T03:01:41.759Z,165
2022-10-28T03:02:13.030Z,165
2022-10-28T03:02:33.965Z,165
2022-10-28T03:03:00.338Z,165
2022-10-28T03:03:32.452Z,165
2022-10-28T03:04:04.423Z,165
2022-10-28T03:04:34.096Z,165
2022-10-28T03:05:08.741Z,165
2022-10-28T03:05:33.988Z,165
2022-10-28T03:05:56.465Z,165
2022-10-28T03:06:29.016Z,165
2022-10-28T03:07:00.523Z,165
2022-10-28T03:07:32.387Z,165
2022-10-28T03:08:04.386Z,165
2022-10-28T03:08:34.214Z,165
2022-10-28T03:08:53.540Z,165
2022-10-28T03:09:24.831Z,165
2022-10-28T03:09:41.453Z,169
2022-10-28T03:10:13.384Z,201
2022-10-28T03:10:33.977Z,201
2022-10-28T03:11:00.632Z,201
2022-10-28T03:11:32.428Z,201
2022-10-28T03:12:04.404Z,201
2022-10-28T03:12:34.084Z,201
2022-10-28T03:12:52.422Z,201
2022-10-28T03:13:25.228Z,201
2022-10-28T03:13:57.785Z,201
2022-10-28T03:14:29.160Z,201
2022-10-28T03:15:00.752Z,201
2022-10-28T03:15:32.837Z,201
2022-10-28T03:16:04.396Z,201
2022-10-28T03:16:34.143Z,201
2022-10-28T03:16:53.264Z,201
2022-10-28T03:17:24.599Z,201
2022-10-28T03:17:41.643Z,201
2022-10-28T03:18:12.357Z,201
2022-10-28T03:18:33.973Z,201
2022-10-28T03:19:01.558Z,201
2022-10-28T03:19:32.508Z,201
2022-10-28T03:20:04.726Z,201
2022-10-28T03:20:34.022Z,201
2022-10-28T03:20:55.415Z,201
2022-10-28T03:21:25.321Z,201
2022-10-28T03:21:57.318Z,201
2022-10-28T03:22:29.199Z,201
2022-10-28T03:23:00.390Z,201
2022-10-28T03:23:32.499Z,201
2022-10-28T03:24:04.733Z,201
2022-10-28T03:24:33.914Z,201
2022-10-28T03:24:53.280Z,201
2022-10-28T03:25:24.547Z,201
2022-10-28T03:25:41.612Z,201
2022-10-28T03:26:12.523Z,201
2022-10-28T03:26:34.099Z,201
2022-10-28T03:27:01.132Z,201
2022-10-28T03:27:32.493Z,201
2022-10-28T03:28:05.058Z,201
2022-10-28T03:28:33.965Z,201
2022-10-28T03:28:52.315Z,201
2022-10-28T03:29:24.330Z,201
2022-10-28T03:29:44.949Z,201
2022-10-28T03:30:13.222Z,201
2022-10-28T03:30:34.094Z,201
2022-10-28T03:31:00.399Z,201
2022-10-28T03:31:33.328Z,201
2022-10-28T03:32:52.798Z,201
2022-10-28T03:33:24.375Z,201
2022-10-28T03:33:42.273Z,201
2022-10-28T03:34:12.504Z,201
2022-10-28T03:34:34.110Z,201
2022-10-28T03:35:00.465Z,201
2022-10-28T03:35:32.371Z,201
2022-10-28T03:36:05.201Z,201
2022-10-28T03:36:33.911Z,201
2022-10-28T03:36:52.459Z,201
2022-10-28T03:37:24.325Z,201
2022-10-28T03:37:41.478Z,201
2022-10-28T03:38:13.091Z,201
2022-10-28T03:38:34.259Z,201
2022-10-28T03:39:00.525Z,201
2022-10-28T03:39:32.307Z,201
2022-10-28T03:40:04.555Z,201
2022-10-28T03:40:34.470Z,198
2022-10-28T03:40:52.634Z,195
2022-10-28T03:41:25.086Z,195
2022-10-28T03:41:42.137Z,195
2022-10-28T03:42:12.293Z,196
2022-10-28T03:42:35.424Z,196
2022-10-28T03:43:00.515Z,196
2022-10-28T03:43:32.908Z,196
2022-10-28T03:44:04.380Z,196
2022-10-28T03:44:34.062Z,196
2022-10-28T03:44:52.995Z,196
2022-10-28T03:45:24.661Z,196
2022-10-28T03:45:41.433Z,196
2022-10-28T03:46:13.194Z,197
2022-10-28T03:46:36.029Z,197
2022-10-28T03:47:00.668Z,197
2022-10-28T03:47:32.457Z,197
2022-10-28T03:48:04.403Z,197
2022-10-28T03:48:34.062Z,197
2022-10-28T03:48:52.424Z,197
2022-10-28T03:49:25.102Z,197
2022-10-28T03:49:41.963Z,197
2022-10-28T03:50:12.469Z,197
2022-10-28T03:50:33.953Z,206
2022-10-28T03:51:01.213Z,206
2022-10-28T03:51:32.481Z,206
2022-10-28T03:52:04.359Z,206
2022-10-28T03:52:34.795Z,206
2022-10-28T03:52:52.321Z,206
2022-10-28T03:53:29.004Z,206
2022-10-28T03:53:41.904Z,206
2022-10-28T03:54:12.360Z,206
2022-10-28T03:54:33.891Z,206
2022-10-28T03:55:01.309Z,206
2022-10-28T03:55:32.466Z,206
2022-10-28T03:56:05.176Z,206
2022-10-28T03:56:33.949Z,206
2022-10-28T03:56:52.344Z,206
2022-10-28T03:57:24.497Z,206
2022-10-28T03:57:56.601Z,207
2022-10-28T03:58:28.707Z,207
2022-10-28T03:59:00.409Z,207
2022-10-28T03:59:32.391Z,207
2022-10-28T04:00:04.782Z,207
2022-10-28T04:00:34.726Z,207
2022-10-28T04:01:08.652Z,207
2022-10-28T04:01:35.022Z,207
2022-10-28T04:01:57.296Z,207
2022-10-28T04:02:28.560Z,207
2022-10-28T04:03:01.187Z,207
2022-10-28T04:03:32.299Z,207
2022-10-28T04:04:04.550Z,207
2022-10-28T04:04:33.948Z,207
2022-10-28T04:04:52.313Z,207
2022-10-28T04:05:25.354Z,207
2022-10-28T04:05:42.075Z,207
2022-10-28T04:06:12.537Z,207
2022-10-28T04:06:34.353Z,207
2022-10-28T04:07:00.596Z,207
2022-10-28T04:07:33.116Z,207
2022-10-28T04:08:04.364Z,207
2022-10-28T04:08:34.088Z,207
2022-10-28T04:08:53.142Z,207
2022-10-28T04:09:24.328Z,207
2022-10-28T04:09:42.743Z,207
2022-10-28T04:10:12.472Z,207
2022-10-28T04:10:33.930Z,207
2022-10-28T04:11:01.118Z,207
2022-10-28T04:11:32.300Z,207
2022-10-28T04:12:34.095Z,207
2022-10-28T04:12:52.764Z,207
2022-10-28T04:13:24.990Z,207
2022-10-28T04:13:41.788Z,207
2022-10-28T04:14:12.332Z,207
2022-10-28T04:14:34.006Z,207
2022-10-28T04:15:00.749Z,207
2022-10-28T04:15:33.165Z,207
2022-10-28T04:16:04.411Z,207
2022-10-28T04:16:34.897Z,208
2022-10-28T04:16:52.420Z,208
2022-10-28T04:17:24.532Z,208
2022-10-28T04:17:42.209Z,208
2022-10-28T04:18:12.603Z,208
2022-10-28T04:18:33.914Z,208
2022-10-28T04:19:00.369Z,208
2022-10-28T04:19:32.472Z,208
2022-10-28T04:20:05.125Z,208
2022-10-28T04:20:34.501Z,208
2022-10-28T04:20:52.397Z,207
2022-10-28T04:21:25.038Z,207
2022-10-28T04:21:41.961Z,207
2022-10-28T04:22:12.352Z,207
2022-10-28T04:22:33.943Z,207
2022-10-28T04:23:00.669Z,207
2022-10-28T04:23:33.254Z,207
2022-10-28T04:24:04.565Z,207
2022-10-28T04:24:34.946Z,207
2022-10-28T04:24:52.323Z,207
2022-10-28T04:25:24.580Z,207
2022-10-28T04:25:41.613Z,207
2022-10-28T04:26:13.111Z,207
2022-10-28T04:26:34.093Z,207
2022-10-28T04:27:00.460Z,207
2022-10-28T04:27:33.204Z,207
2022-10-28T04:28:04.543Z,207
2022-10-28T04:28:35.850Z,207
2022-10-28T04:28:52.193Z,207
2022-10-28T04:29:24.341Z,207
2022-10-28T04:29:41.505Z,207
2022-10-28T04:30:13.453Z,207
2022-10-28T04:30:34.130Z,207
2022-10-28T04:31:00.342Z,207
2022-10-28T04:31:32.336Z,207
2022-10-28T04:32:04.566Z,207
2022-10-28T04:32:34.425Z,207
2022-10-28T04:32:52.743Z,207
2022-10-28T04:33:25.180Z,207
2022-10-28T04:33:42.091Z,207
2022-10-28T04:34:12.498Z,207
2022-10-28T04:34:34.895Z,207
2022-10-28T04:35:00.598Z,207
2022-10-28T04:35:32.325Z,207
2022-10-28T04:36:04.378Z,207
2022-10-28T04:36:34.109Z,207
2022-10-28T04:36:53.036Z,207
2022-10-28T04:37:24.317Z,207
2022-10-28T04:37:41.443Z,207
2022-10-28T04:38:12.472Z,207
2022-10-28T04:38:33.935Z,207
2022-10-28T04:39:00.950Z,207
2022-10-28T04:39:32.319Z,207
2022-10-28T04:40:05.296Z,207
2022-10-28T04:40:34.077Z,207
2022-10-28T04:40:52.676Z,207
2022-10-28T04:41:34.521Z,207
2022-10-28T04:41:56.260Z,207
2022-10-28T04:42:28.459Z,207
2022-10-28T04:43:00.293Z,207
2022-10-28T04:43:32.279Z,207
2022-10-28T04:44:04.568Z,208
2022-10-28T04:44:33.940Z,207
2022-10-28T04:44:52.490Z,208
2022-10-28T04:45:25.337Z,208
2022-10-28T04:45:42.005Z,208
2022-10-28T04:46:12.464Z,208
2022-10-28T04:46:34.375Z,208
2022-10-28T04:47:01.001Z,208
2022-10-28T04:47:32.276Z,208
2022-10-28T04:48:05.090Z,208
2022-10-28T04:48:34.152Z,208
2022-10-28T04:48:52.463Z,208
2022-10-28T04:49:24.362Z,208
2022-10-28T04:49:41.438Z,208
2022-10-28T04:50:13.292Z,208
2022-10-28T04:50:33.945Z,208
2022-10-28T04:51:00.553Z,208
2022-10-28T04:51:32.273Z,208
2022-10-28T04:52:04.345Z,208
2022-10-28T04:52:34.052Z,208
2022-10-28T04:52:52.897Z,208
2022-10-28T04:53:25.010Z,208
2022-10-28T04:53:56.285Z,208
2022-10-28T04:54:29.123Z,207
2022-10-28T04:55:00.581Z,207
2022-10-28T04:55:32.484Z,207
2022-10-28T04:56:04.334Z,207
2022-10-28T04:56:34.091Z,207
2022-10-28T04:56:53.160Z,207
2022-10-28T04:57:24.421Z,207
2022-10-28T04:57:41.652Z,207
2022-10-28T04:58:12.284Z,207
2022-10-28T04:58:34.418Z,207
2022-10-28T04:59:01.148Z,207
2022-10-28T04:59:32.429Z,207
2022-10-28T05:00:05.592Z,207
2022-10-28T05:00:34.079Z,207
2022-10-28T05:00:52.535Z,207
2022-10-28T05:01:24.637Z,207
2022-10-28T05:01:41.659Z,207
2022-10-28T05:02:13.326Z,207
2022-10-28T05:02:34.099Z,207
2022-10-28T05:03:00.344Z,207
2022-10-28T05:03:32.924Z,207
2022-10-28T05:04:04.561Z,207
2022-10-28T05:04:35.924Z,207
2022-10-28T05:04:52.357Z,207
2022-10-28T05:05:24.469Z,207
2022-10-28T05:05:42.283Z,207
2022-10-28T05:06:12.500Z,207
2022-10-28T05:06:33.991Z,207
2022-10-28T05:07:00.281Z,207
2022-10-28T05:07:32.267Z,207
2022-10-28T05:08:05.172Z,207
2022-10-28T05:08:33.888Z,207
2022-10-28T05:08:52.439Z,207
2022-10-28T05:09:24.331Z,207
2022-10-28T05:09:41.445Z,207
2022-10-28T05:10:13.103Z,207
2022-10-28T05:10:34.001Z,207
2022-10-28T05:11:00.296Z,207
2022-10-28T05:11:33.169Z,207
2022-10-28T05:12:04.379Z,207
2022-10-28T05:12:34.756Z,207
2022-10-28T05:12:52.485Z,207
2022-10-28T05:13:24.335Z,207
2022-10-28T05:13:42.233Z,207
2022-10-28T05:14:12.301Z,207
2022-10-28T05:14:33.877Z,207
2022-10-28T05:15:00.714Z,207
2022-10-28T05:15:32.286Z,207
2022-10-28T05:16:05.213Z,207
2022-10-28T05:16:34.341Z,207
2022-10-28T05:16:52.564Z,207
2022-10-28T05:17:25.056Z,207
2022-10-28T05:17:56.566Z,207
2022-10-28T05:18:29.115Z,207
2022-10-28T05:19:00.542Z,207
2022-10-28T05:19:32.421Z,207
2022-10-28T05:20:04.460Z,207
2022-10-28T05:20:34.090Z,207
2022-10-28T05:20:53.337Z,207
2022-10-28T05:21:24.457Z,207
2022-10-28T05:21:41.538Z,207
2022-10-28T05:22:12.390Z,207
2022-10-28T05:22:33.918Z,207
2022-10-28T05:23:01.204Z,207
2022-10-28T05:23:32.458Z,207
2022-10-28T05:24:04.501Z,207
2022-10-28T05:24:33.903Z,207
2022-10-28T05:24:52.353Z,207
2022-10-28T05:25:25.487Z,207
2022-10-28T05:25:57.514Z,207
2022-10-28T05:26:29.063Z,207
2022-10-28T05:27:00.617Z,207
2022-10-28T05:27:32.406Z,207
2022-10-28T05:28:04.511Z,207
2022-10-28T05:28:34.728Z,207
2022-10-28T05:28:53.075Z,207
2022-10-28T05:29:24.349Z,207
2022-10-28T05:29:41.488Z,207
2022-10-28T05:30:13.235Z,207
2022-10-28T05:30:34.100Z,207
2022-10-28T05:31:00.373Z,207
2022-10-28T05:31:33.222Z,207
2022-10-28T05:32:34.276Z,207
2022-10-28T05:32:55.324Z,207
2022-10-28T05:33:24.290Z,207
2022-10-28T05:33:41.396Z,207
2022-10-28T05:34:12.429Z,207
2022-10-28T05:34:33.947Z,207
2022-10-28T05:35:01.022Z,207
2022-10-28T05:35:32.275Z,207
2022-10-28T05:36:05.158Z,207
2022-10-28T05:36:34.070Z,207
2022-10-28T05:36:52.457Z,207
2022-10-28T05:37:24.987Z,207
2022-10-28T05:37:56.604Z,207
2022-10-28T05:38:28.463Z,207
2022-10-28T05:39:00.517Z,207
2022-10-28T05:39:32.329Z,207
2022-10-28T05:40:04.384Z,207
2022-10-28T05:40:34.021Z,207
2022-10-28T05:40:53.143Z,207
2022-10-28T05:41:24.551Z,207
2022-10-28T05:41:41.582Z,207
2022-10-28T05:42:13.048Z,207
2022-10-28T05:42:33.949Z,207
2022-10-28T05:43:00.404Z,207
2022-10-28T05:43:33.072Z,207
2022-10-28T05:44:04.543Z,207
2022-10-28T05:44:33.893Z,207
2022-10-28T05:44:53.066Z,207
2022-10-28T05:45:34.254Z,207
2022-10-28T05:45:56.445Z,207
2022-10-28T05:46:28.284Z,207
2022-10-28T05:47:00.253Z,207
2022-10-28T05:47:34.247Z,207
2022-10-28T05:48:04.541Z,207
2022-10-28T05:48:33.914Z,207
2022-10-28T05:48:52.358Z,207
2022-10-28T05:49:25.240Z,207
2022-10-28T05:49:56.492Z,207
2022-10-28T05:50:28.613Z,207
2022-10-28T05:51:00.343Z,207
2022-10-28T05:51:32.249Z,207
2022-10-28T05:52:04.560Z,207
2022-10-28T05:52:34.469Z,207
2022-10-28T05:52:52.906Z,207
2022-10-28T05:53:24.284Z,207
2022-10-28T05:53:41.466Z,207
2022-10-28T05:54:12.551Z,207
2022-10-28T05:54:34.161Z,207
2022-10-28T05:55:01.205Z,207
2022-10-28T05:55:32.335Z,207
2022-10-28T05:56:04.543Z,207
2022-10-28T05:56:33.931Z,207
2022-10-28T05:56:52.362Z,207
2022-10-28T05:57:25.200Z,207
2022-10-28T05:57:42.091Z,207
2022-10-28T05:58:12.526Z,207
2022-10-28T05:58:34.025Z,207
2022-10-28T05:59:00.336Z,207
2022-10-28T05:59:33.066Z,207
2022-10-28T06:00:04.767Z,207
2022-10-28T06:00:33.926Z,207
2022-10-28T06:00:53.113Z,207
2022-10-28T06:01:24.386Z,207
2022-10-28T06:01:41.574Z,207
2022-10-28T06:02:12.862Z,207
2022-10-28T06:02:34.154Z,207
2022-10-28T06:03:00.294Z,207
2022-10-28T06:03:33.343Z,207
2022-10-28T06:04:04.556Z,207
2022-10-28T06:04:35.766Z,207
2022-10-28T06:04:52.161Z,207
2022-10-28T06:05:24.443Z,207
2022-10-28T06:05:41.435Z,207
2022-10-28T06:06:13.224Z,207
2022-10-28T06:06:34.053Z,207
2022-10-28T06:07:00.501Z,207
2022-10-28T06:07:33.177Z,207
2022-10-28T06:08:04.420Z,207
2022-10-28T06:08:34.020Z,207
2022-10-28T06:08:53.014Z,207
2022-10-28T06:09:24.289Z,207
2022-10-28T06:09:41.442Z,207
2022-10-28T06:10:12.540Z,207
2022-10-28T06:10:33.922Z,207
2022-10-28T06:10:59.525Z,207
2022-10-28T06:11:31.136Z,207
2022-10-28T06:12:02.783Z,207
2022-10-28T06:12:51.239Z,207
2022-10-28T06:13:23.582Z,207
2022-10-28T06:13:55.898Z,207
2022-10-28T06:14:26.945Z,207
2022-10-28T06:14:59.202Z,207
2022-10-28T06:15:30.849Z,207
2022-10-28T06:16:03.076Z,207
2022-10-28T06:16:32.467Z,207
2022-10-28T06:16:51.017Z,207
2022-10-28T06:17:23.741Z,207
2022-10-28T06:17:54.866Z,207
2022-10-28T06:18:27.022Z,207
2022-10-28T06:18:59.054Z,207
2022-10-28T06:19:30.824Z,207
2022-10-28T06:20:03.063Z,207
2022-10-28T06:20:32.482Z,207
2022-10-28T06:20:52.001Z,207
2022-10-28T06:21:22.911Z,207
2022-10-28T06:21:40.140Z,207
2022-10-28T06:22:11.562Z,207
2022-10-28T06:22:32.649Z,207
2022-10-28T06:22:58.841Z,207
2022-10-28T06:23:32.085Z,207
2022-10-28T06:24:03.169Z,207